createdAt,value
2018-05-14T00:00:39.922Z,11.23
2018-05-14T00:03:07.547Z,11.47
2018-05-14T00:05:35.149Z,11.23
2018-05-14T00:08:03.100Z,10.57
2018-05-14T00:10:30.704Z,9.73
2018-05-14T00:12:58.304Z,10.47
2018-05-14T00:15:25.933Z,10.67
2018-05-14T00:17:53.534Z,10.10
2018-05-14T00:20:21.151Z,9.23
2018-05-14T00:22:48.749Z,8.97
2018-05-14T00:25:16.389Z,9.27
2018-05-14T00:27:43.977Z,10.47
2018-05-14T00:30:11.570Z,9.63
2018-05-14T00:32:39.209Z,8.23
2018-05-14T00:35:06.849Z,9.90
2018-05-14T00:37:34.478Z,10.13
2018-05-14T00:40:02.067Z,10.47
2018-05-14T00:42:29.703Z,9.30
2018-05-14T00:44:57.302Z,9.03
2018-05-14T00:47:24.902Z,8.90
2018-05-14T00:49:52.505Z,8.07
2018-05-14T00:52:20.105Z,7.67
2018-05-14T00:54:59.373Z,8.30
2018-05-14T00:57:26.953Z,7.57
2018-05-14T00:59:54.758Z,8.03
2018-05-14T01:02:22.351Z,9.03
2018-05-14T01:04:50.777Z,8.60
2018-05-14T01:07:18.389Z,9.57
2018-05-14T01:09:46.013Z,9.80
2018-05-14T01:12:13.625Z,9.73
2018-05-14T01:14:41.218Z,8.47
2018-05-14T01:17:08.844Z,8.60
2018-05-14T01:19:36.443Z,9.00
2018-05-14T01:22:04.237Z,9.23
2018-05-14T01:24:31.830Z,7.87
2018-05-14T01:26:59.520Z,8.93
2018-05-14T01:29:27.141Z,8.57
2018-05-14T01:31:54.733Z,7.80
2018-05-14T01:34:22.343Z,7.80
2018-05-14T01:36:49.937Z,6.20
2018-05-14T01:39:17.980Z,6.23
2018-05-14T01:41:45.567Z,7.50
2018-05-14T01:44:13.200Z,8.17
2018-05-14T01:46:40.820Z,7.10
2018-05-14T01:49:08.409Z,7.90
2018-05-14T01:51:36.038Z,8.10
2018-05-14T01:54:03.684Z,9.40
2018-05-14T01:56:31.825Z,8.33
2018-05-14T01:58:59.411Z,8.53
2018-05-14T02:01:26.997Z,9.30
2018-05-14T02:03:54.614Z,9.37
2018-05-14T02:06:22.202Z,8.97
2018-05-14T02:08:49.854Z,9.80
2018-05-14T02:11:17.457Z,10.10
2018-05-14T02:13:45.110Z,9.20
2018-05-14T02:16:12.706Z,10.23
2018-05-14T02:18:40.297Z,9.30
2018-05-14T02:21:07.915Z,9.10
2018-05-14T02:23:35.513Z,9.90
2018-05-14T02:26:03.141Z,9.40
2018-05-14T02:28:30.736Z,9.53
2018-05-14T02:30:58.345Z,10.10
2018-05-14T02:33:25.971Z,10.17
2018-05-14T02:35:53.575Z,11.90
2018-05-14T02:38:21.371Z,10.07
2018-05-14T02:40:48.968Z,8.70
2018-05-14T02:43:16.558Z,9.17
2018-05-14T02:45:44.183Z,9.00
2018-05-14T02:48:11.782Z,9.47
2018-05-14T02:50:39.407Z,11.30
2018-05-14T02:53:07.012Z,10.80
2018-05-14T02:55:34.913Z,10.97
2018-05-14T02:58:02.509Z,10.53
2018-05-14T03:00:30.113Z,10.83
2018-05-14T03:02:57.733Z,11.00
2018-05-14T03:05:25.313Z,10.90
2018-05-14T03:07:52.958Z,11.10
2018-05-14T03:10:20.552Z,12.33
2018-05-14T03:12:48.344Z,12.90
2018-05-14T03:15:15.941Z,12.73
2018-05-14T03:17:43.533Z,11.93
2018-05-14T03:20:11.153Z,11.70
2018-05-14T03:22:38.776Z,11.83
2018-05-14T03:25:06.417Z,13.30
2018-05-14T03:27:34.013Z,10.70
2018-05-14T03:30:01.782Z,11.90
2018-05-14T03:32:29.461Z,12.47
2018-05-14T03:34:57.159Z,13.40
2018-05-14T03:37:24.841Z,12.73
2018-05-14T03:39:52.504Z,11.73
2018-05-14T03:42:20.125Z,12.97
2018-05-14T03:44:47.746Z,13.17
2018-05-14T03:47:16.036Z,13.63
2018-05-14T03:49:43.642Z,12.47
2018-05-14T03:52:11.275Z,12.33
2018-05-14T03:54:38.913Z,12.83
2018-05-14T03:57:06.510Z,12.37
2018-05-14T03:59:45.811Z,12.90
2018-05-14T04:02:25.241Z,12.30
2018-05-14T04:05:04.658Z,12.63
2018-05-14T04:07:32.269Z,11.73
2018-05-14T04:09:59.914Z,13.57
2018-05-14T04:12:27.508Z,12.30
2018-05-14T04:14:55.100Z,12.67
2018-05-14T04:17:22.725Z,12.03
2018-05-14T04:19:50.329Z,12.23
2018-05-14T04:22:17.973Z,13.00
2018-05-14T04:24:45.578Z,13.00
2018-05-14T04:27:13.194Z,12.83
2018-05-14T04:29:40.913Z,13.70
2018-05-14T04:32:08.542Z,12.10
2018-05-14T04:34:36.133Z,11.77
2018-05-14T04:37:03.774Z,12.33
2018-05-14T04:39:31.373Z,11.27
2018-05-14T04:41:58.997Z,11.67
2018-05-14T04:44:26.581Z,13.50
2018-05-14T04:46:54.450Z,12.40
2018-05-14T04:49:22.053Z,11.83
2018-05-14T04:51:49.651Z,11.70
2018-05-14T04:54:17.341Z,11.77
2018-05-14T04:56:45.004Z,11.30
2018-05-14T04:59:12.697Z,12.13
2018-05-14T05:01:40.266Z,11.80
2018-05-14T05:04:07.954Z,11.50
2018-05-14T05:06:35.549Z,11.87
2018-05-14T05:09:03.171Z,13.00
2018-05-14T05:11:30.923Z,11.43
2018-05-14T05:13:58.487Z,10.93
2018-05-14T05:16:26.099Z,10.70
2018-05-14T05:18:53.776Z,11.03
2018-05-14T05:21:21.423Z,11.67
2018-05-14T05:23:49.046Z,12.03
2018-05-14T05:26:16.632Z,11.93
2018-05-14T05:28:44.241Z,12.07
2018-05-14T05:31:11.843Z,12.70
2018-05-14T05:33:39.735Z,10.80
2018-05-14T05:36:07.330Z,10.77
2018-05-14T05:38:34.929Z,11.90
2018-05-14T05:41:02.547Z,11.30
2018-05-14T05:43:30.137Z,10.30
2018-05-14T05:45:57.779Z,8.90
2018-05-14T05:48:25.379Z,11.77
2018-05-14T05:50:53.219Z,10.50
2018-05-14T05:53:20.841Z,10.90
2018-05-14T05:55:48.491Z,11.23
2018-05-14T05:58:16.128Z,10.30
2018-05-14T06:00:43.721Z,9.67
2018-05-14T06:03:11.341Z,11.53
2018-05-14T06:05:38.946Z,9.60
2018-05-14T06:08:06.689Z,10.60
2018-05-14T06:10:34.425Z,11.13
2018-05-14T06:13:02.037Z,8.87
2018-05-14T06:15:29.696Z,9.50
2018-05-14T06:17:57.295Z,9.60
2018-05-14T06:20:24.915Z,9.40
2018-05-14T06:22:52.576Z,8.93
2018-05-14T06:25:20.332Z,8.50
2018-05-14T06:27:48.019Z,9.60
2018-05-14T06:30:15.603Z,10.00
2018-05-14T06:32:43.210Z,8.50
2018-05-14T06:35:10.830Z,9.07
2018-05-14T06:37:38.447Z,8.60
2018-05-14T06:40:06.057Z,8.30
2018-05-14T06:42:33.695Z,8.60
2018-05-14T06:45:01.314Z,7.97
2018-05-14T06:47:28.920Z,7.80
2018-05-14T06:49:56.594Z,7.23
2018-05-14T06:52:24.162Z,7.53
2018-05-14T06:54:51.792Z,7.37
2018-05-14T06:57:19.388Z,7.20
2018-05-14T06:59:46.989Z,7.67
2018-05-14T07:02:14.617Z,6.63
2018-05-14T07:04:42.262Z,6.40
2018-05-14T07:07:10.090Z,5.97
2018-05-14T07:09:37.757Z,5.30
2018-05-14T07:12:05.353Z,6.17
2018-05-14T07:14:32.969Z,5.90
2018-05-14T07:17:00.566Z,4.77
2018-05-14T07:19:28.183Z,5.70
2018-05-14T07:21:55.801Z,6.33
2018-05-14T07:24:23.621Z,5.30
2018-05-14T07:26:51.212Z,4.77
2018-05-14T07:29:18.809Z,6.23
2018-05-14T07:31:46.530Z,5.70
2018-05-14T07:34:14.152Z,6.10
2018-05-14T07:36:41.787Z,6.27
2018-05-14T07:39:09.383Z,4.57
2018-05-14T07:41:37.041Z,6.20
2018-05-14T07:44:04.629Z,5.30
2018-05-14T07:46:32.225Z,6.23
2018-05-14T07:48:59.944Z,5.37
2018-05-14T07:51:27.490Z,5.33
2018-05-14T07:53:55.100Z,5.30
2018-05-14T07:56:22.717Z,4.60
2018-05-14T07:58:50.618Z,5.40
2018-05-14T08:01:18.263Z,5.93
2018-05-14T08:03:45.858Z,4.87
2018-05-14T08:06:13.503Z,4.83
2018-05-14T08:08:41.455Z,5.60
2018-05-14T08:11:09.409Z,4.80
2018-05-14T08:13:37.001Z,6.33
2018-05-14T08:16:04.839Z,5.60
2018-05-14T08:18:32.429Z,5.70
2018-05-14T08:21:00.258Z,4.73
2018-05-14T08:23:27.889Z,4.97
2018-05-14T08:25:55.502Z,4.60
2018-05-14T08:28:23.112Z,4.33
2018-05-14T08:30:50.698Z,4.83
2018-05-14T08:33:18.579Z,5.57
2018-05-14T08:35:46.173Z,5.53
2018-05-14T08:38:14.084Z,5.63
2018-05-14T08:40:41.900Z,5.43
2018-05-14T08:43:09.504Z,5.00
2018-05-14T08:45:37.127Z,4.97
2018-05-14T08:48:04.812Z,5.40
2018-05-14T08:50:32.635Z,5.03
2018-05-14T08:53:00.228Z,4.80
2018-05-14T08:55:27.811Z,5.37
2018-05-14T08:57:55.588Z,4.53
2018-05-14T09:00:23.200Z,4.13
2018-05-14T09:02:50.817Z,5.23
2018-05-14T09:05:18.419Z,4.90
2018-05-14T09:07:46.486Z,3.93
2018-05-14T09:10:14.078Z,4.00
2018-05-14T09:12:41.658Z,4.00
2018-05-14T09:15:09.270Z,4.23
2018-05-14T09:17:36.854Z,4.90
2018-05-14T09:20:04.477Z,4.27
2018-05-14T09:22:32.074Z,4.63
2018-05-14T09:24:59.927Z,4.20
2018-05-14T09:27:27.508Z,4.27
2018-05-14T09:29:55.104Z,3.50
2018-05-14T09:32:22.722Z,4.30
2018-05-14T09:34:50.337Z,3.53
2018-05-14T09:37:17.967Z,4.53
2018-05-14T09:39:45.568Z,4.30
2018-05-14T09:42:13.204Z,4.20
2018-05-14T09:44:40.792Z,3.93
2018-05-14T09:47:08.386Z,4.10
2018-05-14T09:49:36.013Z,3.90
2018-05-14T09:52:03.604Z,3.93
2018-05-14T09:54:31.232Z,3.60
2018-05-14T09:56:58.829Z,3.33
2018-05-14T09:59:26.588Z,3.60
2018-05-14T10:01:54.194Z,3.53
2018-05-14T10:04:21.841Z,2.70
2018-05-14T10:06:49.516Z,3.50
2018-05-14T10:09:17.104Z,3.17
2018-05-14T10:11:44.701Z,3.00
2018-05-14T10:14:12.436Z,3.03
2018-05-14T10:16:40.062Z,2.70
2018-05-14T10:19:07.667Z,3.23
2018-05-14T10:21:35.363Z,3.50
2018-05-14T10:24:02.977Z,3.10
2018-05-14T10:26:30.577Z,3.13
2018-05-14T10:28:58.203Z,3.30
2018-05-14T10:31:25.815Z,3.80
2018-05-14T10:33:53.658Z,2.97
2018-05-14T10:36:21.251Z,3.60
2018-05-14T10:38:48.833Z,2.87
2018-05-14T10:41:16.433Z,3.87
2018-05-14T10:43:44.034Z,4.17
2018-05-14T10:46:11.664Z,3.53
2018-05-14T10:48:39.269Z,2.80
2018-05-14T10:51:07.097Z,3.50
2018-05-14T10:53:34.693Z,3.20
2018-05-14T10:56:02.313Z,3.70
2018-05-14T10:58:30.141Z,3.80
2018-05-14T11:00:57.725Z,2.83
2018-05-14T11:03:25.357Z,2.70
2018-05-14T11:05:53.196Z,2.90
2018-05-14T11:08:21.090Z,2.90
2018-05-14T11:10:48.711Z,3.00
2018-05-14T11:13:16.679Z,3.77
2018-05-14T11:15:44.343Z,3.20
2018-05-14T11:18:12.100Z,3.80
2018-05-14T11:20:39.716Z,2.90
2018-05-14T11:23:07.596Z,3.53
2018-05-14T11:25:35.813Z,3.60
2018-05-14T11:28:03.392Z,3.40
2018-05-14T11:30:30.973Z,3.07
2018-05-14T11:32:58.702Z,3.60
2018-05-14T11:35:26.381Z,3.70
2018-05-14T11:37:53.944Z,3.63
2018-05-14T11:40:22.078Z,3.47
2018-05-14T11:42:50.039Z,3.73
2018-05-14T11:45:18.111Z,3.60
2018-05-14T11:47:45.794Z,3.80
2018-05-14T11:50:13.398Z,3.67
2018-05-14T11:52:40.982Z,4.10
2018-05-14T11:55:08.703Z,3.70
2018-05-14T11:57:36.301Z,3.90
2018-05-14T12:00:04.474Z,4.60
2018-05-14T12:02:32.078Z,4.10
2018-05-14T12:04:59.682Z,4.33
2018-05-14T12:07:27.298Z,3.93
2018-05-14T12:09:54.889Z,3.93
2018-05-14T12:12:22.627Z,4.50
2018-05-14T12:14:50.222Z,4.40
2018-05-14T12:17:17.898Z,4.67
2018-05-14T12:19:45.490Z,4.67
2018-05-14T12:22:13.178Z,4.00
2018-05-14T12:24:40.779Z,3.90
2018-05-14T12:27:08.751Z,4.00
2018-05-14T12:29:36.368Z,4.10
2018-05-14T12:32:04.062Z,4.63
2018-05-14T12:34:31.790Z,3.90
2018-05-14T12:36:59.570Z,3.80
2018-05-14T12:39:27.575Z,3.40
2018-05-14T12:41:55.303Z,4.33
2018-05-14T12:44:22.877Z,3.53
2018-05-14T12:46:50.486Z,4.30
2018-05-14T12:49:21.030Z,3.07
2018-05-14T12:51:49.196Z,3.23
2018-05-14T12:54:16.798Z,4.57
2018-05-14T12:56:44.397Z,3.90
2018-05-14T12:59:12.007Z,2.80
2018-05-14T13:01:39.607Z,2.80
2018-05-14T13:04:07.225Z,2.60
2018-05-14T13:06:34.816Z,3.73
2018-05-14T13:09:02.461Z,2.40
2018-05-14T13:11:30.055Z,2.57
2018-05-14T13:13:57.678Z,3.77
2018-05-14T13:16:25.303Z,2.60
2018-05-14T13:18:52.889Z,3.17
2018-05-14T13:21:20.508Z,1.80
2018-05-14T13:23:48.094Z,2.30
2018-05-14T13:26:15.895Z,2.27
2018-05-14T13:28:43.505Z,1.80
2018-05-14T13:31:11.116Z,2.80
2018-05-14T13:33:38.722Z,1.93
2018-05-14T13:36:06.317Z,2.00
2018-05-14T13:38:34.459Z,2.57
2018-05-14T13:41:02.062Z,2.20
2018-05-14T13:43:29.660Z,1.97
2018-05-14T13:45:57.265Z,2.20
2018-05-14T13:48:24.872Z,2.23
2018-05-14T13:50:52.514Z,2.30
2018-05-14T13:53:20.365Z,2.30
2018-05-14T13:55:47.987Z,2.20
2018-05-14T13:58:15.609Z,2.53
2018-05-14T14:00:43.194Z,1.50
2018-05-14T14:03:10.830Z,1.67
2018-05-14T14:05:38.415Z,1.60
2018-05-14T14:08:06.098Z,2.20
2018-05-14T14:10:33.777Z,1.70
2018-05-14T14:13:01.702Z,2.20
2018-05-14T14:15:29.305Z,1.83
2018-05-14T14:17:56.940Z,2.20
2018-05-14T14:20:24.655Z,1.90
2018-05-14T14:22:52.258Z,2.17
2018-05-14T14:25:20.121Z,2.10
2018-05-14T14:27:47.729Z,2.23
2018-05-14T14:30:15.323Z,2.00
2018-05-14T14:32:42.989Z,1.87
2018-05-14T14:35:10.584Z,2.50
2018-05-14T14:37:38.212Z,2.27
2018-05-14T14:40:05.847Z,2.40
2018-05-14T14:42:33.511Z,1.90
2018-05-14T14:45:01.126Z,2.60
2018-05-14T14:47:28.730Z,2.60
2018-05-14T14:49:56.389Z,3.70
2018-05-14T14:52:23.981Z,4.73
2018-05-14T14:54:51.689Z,4.17
2018-05-14T14:57:19.279Z,4.47
2018-05-14T14:59:47.082Z,4.17
2018-05-14T15:02:14.705Z,4.40
2018-05-14T15:04:42.332Z,4.50
2018-05-14T15:07:10.170Z,4.67
2018-05-14T15:09:37.754Z,4.80
2018-05-14T15:12:05.379Z,4.80
2018-05-14T15:14:32.985Z,5.00
2018-05-14T15:17:00.921Z,3.80
2018-05-14T15:19:28.533Z,4.17
2018-05-14T15:21:56.127Z,4.77
2018-05-14T15:24:23.755Z,4.37
2018-05-14T15:26:51.361Z,5.00
2018-05-14T15:29:18.974Z,4.50
2018-05-14T15:31:46.564Z,4.37
2018-05-14T15:34:14.532Z,5.23
2018-05-14T15:36:42.120Z,4.37
2018-05-14T15:39:09.725Z,4.60
2018-05-14T15:41:37.378Z,4.50
2018-05-14T15:44:04.977Z,4.50
2018-05-14T15:46:32.591Z,4.27
2018-05-14T15:49:00.205Z,4.57
2018-05-14T15:51:27.815Z,4.43
2018-05-14T15:53:55.439Z,4.40
2018-05-14T15:56:23.096Z,4.50
2018-05-14T15:58:50.657Z,4.63
2018-05-14T16:01:18.245Z,4.53
2018-05-14T16:03:45.877Z,4.30
2018-05-14T16:06:13.481Z,4.43
2018-05-14T16:08:41.082Z,4.20
2018-05-14T16:11:08.697Z,3.83
2018-05-14T16:13:36.291Z,4.33
2018-05-14T16:16:03.976Z,4.30
2018-05-14T16:18:31.575Z,4.30
2018-05-14T16:21:00.836Z,4.43
2018-05-14T16:23:28.596Z,4.07
2018-05-14T16:25:56.228Z,4.53
2018-05-14T16:28:23.903Z,4.27
2018-05-14T16:30:51.615Z,3.60
2018-05-14T16:33:19.367Z,4.53
2018-05-14T16:35:46.941Z,5.10
2018-05-14T16:38:14.562Z,4.07
2018-05-14T16:40:42.193Z,4.43
2018-05-14T16:43:09.785Z,4.70
2018-05-14T16:45:37.493Z,6.03
2018-05-14T16:48:05.118Z,5.03
2018-05-14T16:50:32.718Z,4.60
2018-05-14T16:53:00.571Z,4.80
2018-05-14T16:55:28.177Z,4.53
2018-05-14T16:57:55.881Z,5.80
2018-05-14T17:00:23.452Z,4.80
2018-05-14T17:02:51.070Z,4.87
2018-05-14T17:05:18.707Z,4.47
2018-05-14T17:07:46.351Z,5.20
2018-05-14T17:10:13.976Z,4.30
2018-05-14T17:12:41.608Z,4.17
2018-05-14T17:15:09.269Z,3.30
2018-05-14T17:17:37.068Z,3.47
2018-05-14T17:20:04.663Z,3.47
2018-05-14T17:22:32.262Z,3.27
2018-05-14T17:24:59.887Z,3.13
2018-05-14T17:27:27.476Z,2.97
2018-05-14T17:29:55.313Z,2.90
2018-05-14T17:32:22.914Z,2.77
2018-05-14T17:34:50.517Z,2.90
2018-05-14T17:37:18.150Z,3.17
2018-05-14T17:39:45.742Z,3.20
2018-05-14T17:42:13.381Z,3.13
2018-05-14T17:44:41.058Z,3.80
2018-05-14T17:47:08.689Z,2.97
2018-05-14T17:49:36.285Z,3.40
2018-05-14T17:52:03.980Z,3.60
2018-05-14T17:54:31.594Z,3.40
2018-05-14T17:56:59.186Z,3.37
2018-05-14T17:59:26.813Z,2.97
2018-05-14T18:01:54.424Z,3.40
2018-05-14T18:04:22.090Z,4.00
2018-05-14T18:06:49.707Z,3.17
2018-05-14T18:09:17.307Z,2.90
2018-05-14T18:11:44.952Z,4.23
2018-05-14T18:14:12.554Z,4.10
2018-05-14T18:16:40.170Z,3.53
2018-05-14T18:19:07.789Z,3.40
2018-05-14T18:21:38.459Z,3.10
2018-05-14T18:24:06.109Z,3.40
2018-05-14T18:26:39.266Z,3.77
2018-05-14T18:29:09.427Z,2.77
2018-05-14T18:31:42.581Z,3.53
2018-05-14T18:34:10.199Z,3.80
2018-05-14T18:36:37.811Z,3.43
2018-05-14T18:39:06.309Z,3.57
2018-05-14T18:41:33.910Z,3.50
2018-05-14T18:44:01.516Z,3.20
2018-05-14T18:46:29.156Z,3.77
2018-05-14T18:48:56.753Z,3.73
2018-05-14T18:51:24.392Z,3.40
2018-05-14T18:53:52.610Z,3.83
2018-05-14T18:56:20.214Z,3.53
2018-05-14T18:58:47.864Z,3.80
2018-05-14T19:01:15.528Z,3.03
2018-05-14T19:03:43.142Z,3.90
2018-05-14T19:06:10.739Z,3.90
2018-05-14T19:08:38.363Z,4.47
2018-05-14T19:11:11.684Z,3.50
2018-05-14T19:13:39.343Z,3.47
2018-05-14T19:16:12.645Z,3.90
2018-05-14T19:18:40.309Z,3.47
2018-05-14T19:21:07.898Z,3.70
2018-05-14T19:23:40.947Z,2.60
2018-05-14T19:26:08.542Z,3.30
2018-05-14T19:28:41.736Z,3.33
2018-05-14T19:31:09.336Z,3.37
2018-05-14T19:33:42.447Z,3.63
2018-05-14T19:36:10.154Z,3.57
2018-05-14T19:38:37.689Z,3.60
2018-05-14T19:41:05.294Z,5.00
2018-05-14T19:43:32.929Z,4.03
2018-05-14T19:46:00.529Z,3.33
2018-05-14T19:48:28.191Z,2.83
2018-05-14T19:50:55.813Z,4.10
2018-05-14T19:53:23.445Z,3.43
2018-05-14T19:55:51.030Z,3.50
2018-05-14T19:58:18.663Z,3.00
2018-05-14T20:00:46.268Z,3.40
2018-05-14T20:03:13.870Z,3.13
2018-05-14T20:05:41.504Z,3.57
2018-05-14T20:08:09.127Z,3.10
2018-05-14T20:10:36.754Z,3.00
2018-05-14T20:13:04.361Z,2.90
2018-05-14T20:15:32.033Z,3.00
2018-05-14T20:17:59.628Z,2.83
2018-05-14T20:20:27.257Z,3.40
2018-05-14T20:22:54.857Z,3.10
2018-05-14T20:25:22.786Z,3.37
2018-05-14T20:27:50.396Z,2.63
2018-05-14T20:30:17.991Z,3.00
2018-05-14T20:32:45.610Z,3.03
2018-05-14T20:35:13.227Z,2.83
2018-05-14T20:37:40.842Z,2.80
2018-05-14T20:40:08.460Z,2.93
2018-05-14T20:42:36.080Z,3.20
2018-05-14T20:45:03.689Z,2.63
2018-05-14T20:47:31.649Z,3.20
2018-05-14T20:49:59.478Z,3.20
2018-05-14T20:52:27.073Z,3.13
2018-05-14T20:54:54.686Z,2.83
2018-05-14T20:57:22.276Z,3.23
2018-05-14T20:59:49.990Z,2.70
2018-05-14T21:02:17.523Z,2.87
2018-05-14T21:04:45.130Z,2.70
2018-05-14T21:07:12.755Z,2.73
2018-05-14T21:09:40.380Z,2.80
2018-05-14T21:12:07.977Z,3.13
2018-05-14T21:14:35.577Z,2.70
2018-05-14T21:17:03.187Z,2.53
2018-05-14T21:19:30.789Z,2.37
2018-05-14T21:21:58.413Z,3.07
2018-05-14T21:24:26.013Z,2.50
2018-05-14T21:26:53.661Z,2.40
2018-05-14T21:29:21.266Z,2.93
2018-05-14T21:31:48.881Z,2.90
2018-05-14T21:34:16.489Z,3.13
2018-05-14T21:36:44.076Z,3.30
2018-05-14T21:39:11.954Z,2.63
2018-05-14T21:41:39.555Z,2.90
2018-05-14T21:44:07.148Z,2.90
2018-05-14T21:46:34.774Z,2.40
2018-05-14T21:49:02.369Z,2.60
2018-05-14T21:51:29.994Z,2.50
2018-05-14T21:53:57.594Z,2.50
2018-05-14T21:56:25.576Z,2.63
2018-05-14T21:58:53.169Z,2.80
2018-05-14T22:01:20.766Z,2.93
2018-05-14T22:03:48.393Z,2.27
2018-05-14T22:06:15.978Z,2.80
2018-05-14T22:08:43.598Z,2.80
2018-05-14T22:11:11.198Z,2.97
2018-05-14T22:13:39.119Z,3.30
2018-05-14T22:16:06.717Z,2.70
2018-05-14T22:18:34.317Z,2.60
2018-05-14T22:21:01.938Z,2.80
2018-05-14T22:23:29.526Z,3.00
2018-05-14T22:25:58.247Z,2.80
2018-05-14T22:28:25.850Z,2.80
2018-05-14T22:30:53.472Z,2.63
2018-05-14T22:33:21.095Z,3.30
2018-05-14T22:35:48.717Z,3.10
2018-05-14T22:38:16.336Z,2.93
2018-05-14T22:40:43.953Z,2.53
2018-05-14T22:43:11.585Z,3.10
2018-05-14T22:45:39.181Z,3.37
2018-05-14T22:48:06.775Z,2.60
2018-05-14T22:50:34.404Z,3.20
2018-05-14T22:53:01.996Z,3.13
2018-05-14T22:55:29.635Z,2.40
2018-05-14T22:57:57.319Z,2.50
2018-05-14T23:00:25.498Z,3.43
2018-05-14T23:02:53.092Z,3.10
2018-05-14T23:05:20.695Z,3.00
2018-05-14T23:07:48.318Z,2.73
2018-05-14T23:10:15.912Z,2.43
2018-05-14T23:12:43.534Z,2.57
2018-05-14T23:15:11.122Z,3.10
2018-05-14T23:17:38.991Z,2.70
2018-05-14T23:20:06.579Z,2.77
2018-05-14T23:22:41.887Z,2.63
2018-05-14T23:25:09.485Z,3.37
2018-05-14T23:27:37.091Z,3.00
2018-05-14T23:30:04.709Z,2.70
2018-05-14T23:32:32.298Z,3.13
2018-05-14T23:34:59.913Z,3.03
2018-05-14T23:37:27.515Z,3.03
2018-05-14T23:39:55.128Z,2.63
2018-05-14T23:42:22.716Z,2.77
2018-05-14T23:44:50.365Z,2.90
2018-05-14T23:47:18.102Z,3.30
2018-05-14T23:49:45.693Z,2.80
2018-05-14T23:52:13.310Z,2.70
2018-05-14T23:54:40.907Z,3.27
2018-05-14T23:57:08.524Z,2.60
2018-05-14T23:59:36.117Z,2.50
